Time;durP1;ratioP1;P1;durP2;ratioP2;P2;SDS_P1;SDS_P2;PMS_P1;PMS_P2;Temp;Humidity;BMP_temperature;BMP_pressure;BME280_temperature;BME280_humidity;BME280_pressure;Samples;Min_cycle;Max_cycle;Signal;HPM_P1;HPM_P2
2023/10/05 00:02:00;;;;;;;6.47;3.10;;;;;;;9.15;87.60;98880.94;4859283;29;20394;-72
2023/10/05 00:04:27;;;;;;;6.60;3.38;;;;;;;9.12;88.20;98866.09;4860862;29;20056;-72
2023/10/05 00:06:56;;;;;;;6.63;3.55;;;;;;;9.05;88.86;98892.31;4860092;29;20578;-71
2023/10/05 00:09:24;;;;;;;5.30;3.28;;;;;;;9.03;89.47;98878.28;4860855;29;20503;-72
2023/10/05 00:11:56;;;;;;;6.10;3.33;;;;;;;9.02;88.67;98871.28;4861392;29;20049;-71
2023/10/05 00:14:21;;;;;;;7.65;3.42;;;;;;;9.01;89.31;98872.25;4861526;29;20048;-71
2023/10/05 00:16:48;;;;;;;8.25;3.50;;;;;;;9.03;89.12;98872.09;4844257;29;20463;-70
2023/10/05 00:19:16;;;;;;;4.15;2.72;;;;;;;9.03;88.85;98894.22;4861552;29;20075;-69
2023/10/05 00:21:50;;;;;;;6.35;2.30;;;;;;;9.03;89.19;98880.94;4860906;29;20052;-69
2023/10/05 00:24:34;;;;;;;5.20;2.88;;;;;;;9.02;89.76;98876.63;4860534;29;20055;-70
2023/10/05 00:27:01;;;;;;;4.97;2.50;;;;;;;8.98;89.41;98879.63;4861001;29;20040;-73
2023/10/05 00:29:35;;;;;;;5.97;2.80;;;;;;;8.96;89.86;98871.75;4859934;29;20169;-71
2023/10/05 00:32:00;;;;;;;5.18;3.13;;;;;;;8.94;90.31;98876.34;4860343;29;20049;-73
2023/10/05 00:34:33;;;;;;;7.95;3.10;;;;;;;8.93;90.90;98879.09;4861047;29;20055;-66
2023/10/05 00:36:59;;;;;;;9.88;2.75;;;;;;;8.94;90.90;98880.81;4860526;29;20554;-67
2023/10/05 00:39:30;;;;;;;3.45;2.33;;;;;;;8.94;90.64;98878.16;4844788;29;20432;-68
2023/10/05 00:44:23;;;;;;;4.30;2.75;;;;;;;8.88;92.09;98883.94;4860690;29;20056;-68
2023/10/05 00:46:49;;;;;;;5.32;2.90;;;;;;;8.85;92.46;98889.50;4862344;29;20200;-69
2023/10/05 00:49:19;;;;;;;6.25;3.13;;;;;;;8.85;92.58;98894.81;4860601;29;20056;-70
2023/10/05 00:54:45;;;;;;;5.13;2.90;;;;;;;8.86;92.84;98891.19;4858520;29;20071;-69
2023/10/05 00:57:16;;;;;;;3.85;2.67;;;;;;;8.83;93.10;98891.41;4841852;29;20064;-71
2023/10/05 00:59:46;;;;;;;4.88;2.63;;;;;;;8.84;93.00;98898.41;4842819;29;20524;-71
2023/10/05 01:02:14;;;;;;;6.97;3.80;;;;;;;8.85;93.10;98885.03;4858802;29;20048;-74
2023/10/05 01:07:18;;;;;;;7.13;3.22;;;;;;;8.86;92.41;98902.66;4842438;29;20052;-68
2023/10/05 01:14:53;;;;;;;3.28;2.60;;;;;;;8.81;92.69;98896.84;4851111;29;20433;-73
2023/10/05 01:17:25;;;;;;;5.15;3.47;;;;;;;8.81;92.10;98902.16;4826862;29;20053;-74
2023/10/05 01:20:08;;;;;;;8.77;3.22;;;;;;;8.78;91.83;98904.22;4842383;29;20063;-76
2023/10/05 01:22:39;;;;;;;6.82;2.35;;;;;;;8.74;92.04;98914.22;4858125;29;20044;-71
2023/10/05 01:25:08;;;;;;;3.95;2.55;;;;;;;8.71;92.08;98911.78;4857635;29;20096;-70
2023/10/05 01:27:33;;;;;;;5.15;2.50;;;;;;;8.68;91.95;98910.22;4855940;29;20134;-69
2023/10/05 01:30:00;;;;;;;6.72;3.22;;;;;;;8.62;92.28;98912.50;4857384;29;20061;-74
2023/10/05 01:32:26;;;;;;;3.90;2.60;;;;;;;8.58;92.91;98913.66;4860657;29;20037;-76
2023/10/05 01:34:53;;;;;;;4.43;3.22;;;;;;;8.61;92.46;98905.47;4840869;29;20056;-73
2023/10/05 01:37:22;;;;;;;4.93;2.63;;;;;;;8.58;92.24;98930.47;4863523;29;20425;-72
2023/10/05 01:39:48;;;;;;;4.32;2.45;;;;;;;8.56;92.65;98905.00;4862783;29;20052;-72
2023/10/05 01:42:14;;;;;;;4.80;2.60;;;;;;;8.53;93.53;98899.91;4844943;29;20055;-69
2023/10/05 01:44:47;;;;;;;4.93;2.90;;;;;;;8.48;93.91;98913.50;4862646;29;20431;-70
2023/10/05 01:47:16;;;;;;;6.60;3.15;;;;;;;8.47;94.78;98916.28;4862902;29;20048;-68
2023/10/05 01:49:43;;;;;;;5.28;2.65;;;;;;;8.46;94.97;98941.19;4862343;29;20053;-70
2023/10/05 01:52:09;;;;;;;7.00;2.33;;;;;;;8.45;95.38;98923.53;4863802;29;20130;-70
2023/10/05 01:54:35;;;;;;;7.43;2.80;;;;;;;8.43;96.23;98912.19;4863814;29;20047;-69
2023/10/05 01:57:09;;;;;;;5.20;3.28;;;;;;;8.43;95.75;98909.53;4862166;29;20064;-70
2023/10/05 01:59:37;;;;;;;5.00;2.50;;;;;;;8.43;96.18;98918.34;4860571;29;20067;-70
2023/10/05 02:02:09;;;;;;;5.03;2.72;;;;;;;8.43;96.88;98906.88;4863987;29;20064;-69
2023/10/05 02:04:38;;;;;;;3.75;2.72;;;;;;;8.44;97.07;98916.53;4844979;29;20459;-69
2023/10/05 02:07:03;;;;;;;5.85;2.92;;;;;;;8.42;97.43;98907.81;4861406;29;20055;-69
2023/10/05 02:09:30;;;;;;;8.05;2.38;;;;;;;8.39;97.32;98903.56;4846097;29;20063;-69
2023/10/05 02:12:01;;;;;;;5.43;2.63;;;;;;;8.40;97.53;98909.75;4862263;29;20041;-70
2023/10/05 02:14:26;;;;;;;10.18;3.75;;;;;;;8.38;98.01;98902.72;4846891;29;20060;-71
2023/10/05 02:16:52;;;;;;;5.85;2.55;;;;;;;8.38;98.14;98908.03;4862754;29;20048;-76
2023/10/05 02:19:19;;;;;;;6.93;2.60;;;;;;;8.41;97.94;98896.34;4863626;29;20055;-77
2023/10/05 02:21:45;;;;;;;12.40;3.00;;;;;;;8.43;98.53;98907.72;4857281;29;20500;-72
2023/10/05 02:24:22;;;;;;;8.20;2.88;;;;;;;8.43;98.69;98907.72;4860659;29;20048;-72
2023/10/05 02:29:29;;;;;;;8.48;2.83;;;;;;;8.47;99.87;98918.94;4862319;29;20044;-76
2023/10/05 02:37:04;;;;;;;4.82;2.92;;;;;;;8.46;99.43;98904.00;4861887;29;20507;-71
2023/10/05 02:39:32;;;;;;;5.22;3.17;;;;;;;8.44;100.00;98916.53;4861764;29;20060;-70
2023/10/05 02:41:57;;;;;;;5.80;2.78;;;;;;;8.45;99.99;98912.91;4861382;29;20044;-69
2023/10/05 02:44:27;;;;;;;3.92;2.38;;;;;;;8.40;100.00;98905.28;4845411;29;20469;-72
2023/10/05 02:46:53;;;;;;;6.03;2.78;;;;;;;8.41;100.00;98938.00;4861130;29;20045;-73
2023/10/05 02:49:19;;;;;;;3.97;2.22;;;;;;;8.41;100.00;98906.97;4846042;29;20490;-69
2023/10/05 02:51:46;;;;;;;8.35;2.83;;;;;;;8.38;100.00;98913.34;4860862;29;20056;-69
2023/10/05 02:54:12;;;;;;;5.70;2.15;;;;;;;8.36;100.00;98931.19;4861579;29;20055;-69
2023/10/05 02:56:42;;;;;;;4.55;3.05;;;;;;;8.34;100.00;98921.69;4845853;29;20060;-69
2023/10/05 02:59:10;;;;;;;5.45;2.22;;;;;;;8.34;100.00;98911.91;4843330;29;20052;-70
2023/10/05 03:01:37;;;;;;;8.20;3.08;;;;;;;8.33;100.00;98936.75;4845522;29;20053;-72
2023/10/05 03:04:10;;;;;;;4.03;2.13;;;;;;;8.33;100.00;98919.97;4861209;29;20052;-69
2023/10/05 03:06:39;;;;;;;9.77;3.38;;;;;;;8.27;100.00;98878.75;4843635;29;20072;-78
2023/10/05 03:09:07;;;;;;;4.38;2.72;;;;;;;8.32;100.00;98908.50;4829392;29;20060;-71
2023/10/05 03:11:38;;;;;;;7.43;2.83;;;;;;;8.32;100.00;98924.44;4845491;29;20052;-71
2023/10/05 03:14:05;;;;;;;10.15;3.50;;;;;;;8.31;100.00;98911.25;4845709;29;20053;-71
2023/10/05 03:16:35;;;;;;;8.13;2.83;;;;;;;8.29;100.00;98914.00;4845455;29;20420;-71
2023/10/05 03:19:01;;;;;;;7.85;3.03;;;;;;;8.32;100.00;98921.78;4861291;29;20397;-73
2023/10/05 03:21:26;;;;;;;6.15;2.67;;;;;;;8.29;100.00;98918.47;4857474;29;20049;-69
2023/10/05 03:23:52;;;;;;;5.80;2.90;;;;;;;8.29;100.00;98951.19;4859685;29;20051;-69
2023/10/05 03:26:18;;;;;;;9.18;3.67;;;;;;;8.33;100.00;98914.66;4860708;29;20055;-69
2023/10/05 03:28:44;;;;;;;4.93;2.60;;;;;;;8.36;100.00;98917.06;4860779;29;20044;-69
2023/10/05 03:31:14;;;;;;;6.07;3.35;;;;;;;8.36;100.00;98931.19;4860694;29;20122;-68
2023/10/05 03:33:42;;;;;;;5.93;2.50;;;;;;;8.36;100.00;98935.66;4860105;29;20527;-67
2023/10/05 03:36:13;;;;;;;4.30;2.63;;;;;;;8.37;100.00;98926.75;4860470;29;20044;-69
2023/10/05 03:38:41;;;;;;;3.30;2.58;;;;;;;8.35;100.00;98923.38;4845261;29;20587;-68
2023/10/05 03:41:13;;;;;;;8.80;3.58;;;;;;;8.33;100.00;98919.97;4860752;29;20148;-68
2023/10/05 03:43:39;;;;;;;8.75;3.70;;;;;;;8.42;100.00;98919.28;4879343;29;20055;-69
2023/10/05 03:46:06;;;;;;;10.15;3.95;;;;;;;8.52;100.00;98935.41;4880481;29;20056;-71
2023/10/05 03:48:32;;;;;;;9.60;3.22;;;;;;;8.64;100.00;98918.53;4878985;29;20059;-68
2023/10/05 03:50:57;;;;;;;6.10;3.83;;;;;;;8.75;100.00;98926.56;4878927;29;20048;-68
2023/10/05 03:53:24;;;;;;;4.25;2.67;;;;;;;8.83;100.00;98921.50;4879241;29;20167;-69
2023/10/05 03:55:50;;;;;;;8.52;3.90;;;;;;;8.88;100.00;98932.63;4879371;29;20055;-70
2023/10/05 03:58:16;;;;;;;4.68;2.78;;;;;;;8.92;100.00;98922.59;4867182;29;20068;-67
2023/10/05 04:00:41;;;;;;;4.63;3.03;;;;;;;8.91;99.40;98916.47;4860464;29;20892;-68
2023/10/05 04:03:06;;;;;;;5.63;2.72;;;;;;;8.89;98.89;98954.75;4860265;29;20067;-69
2023/10/05 04:05:32;;;;;;;4.03;2.72;;;;;;;8.85;98.53;98938.19;4861526;29;20056;-69
2023/10/05 04:08:10;;;;;;;5.70;3.15;;;;;;;8.90;97.61;98924.56;4844228;29;20044;-69
2023/10/05 04:10:46;;;;;;;9.23;3.55;;;;;;;8.90;97.73;98930.72;4844322;29;20057;-69
2023/10/05 04:13:17;;;;;;;5.57;3.20;;;;;;;8.95;97.56;98933.84;4860186;29;20048;-69
2023/10/05 04:15:42;;;;;;;7.97;3.97;;;;;;;8.94;97.96;98926.00;4844519;29;20067;-68
2023/10/05 04:18:16;;;;;;;6.15;3.10;;;;;;;8.95;97.22;98933.00;4860022;29;20048;-70
2023/10/05 04:20:44;;;;;;;5.80;2.78;;;;;;;9.02;97.45;98929.78;4860303;29;20059;-67
2023/10/05 04:23:14;;;;;;;5.35;2.60;;;;;;;9.07;97.38;98926.75;4860211;29;20044;-69
2023/10/05 04:25:40;;;;;;;11.57;2.90;;;;;;;9.18;97.78;98923.28;4859791;29;20044;-70
2023/10/05 04:28:05;;;;;;;6.28;3.05;;;;;;;9.29;97.47;98926.78;4861130;29;20067;-71
2023/10/05 04:30:33;;;;;;;5.47;3.38;;;;;;;9.44;97.15;98940.72;4859967;29;20064;-70
2023/10/05 04:32:58;;;;;;;6.40;3.63;;;;;;;9.56;96.53;98922.94;4844492;29;20055;-69
2023/10/05 04:35:26;;;;;;;7.40;3.58;;;;;;;9.67;95.95;98921.13;4861046;29;20063;-70
2023/10/05 04:37:54;;;;;;;6.57;3.58;;;;;;;9.80;94.86;98929.00;4843452;29;20420;-74
2023/10/05 04:40:24;;;;;;;9.75;3.22;;;;;;;9.86;94.11;98956.94;4843462;29;20396;-73
2023/10/05 04:42:51;;;;;;;4.93;3.38;;;;;;;9.92;93.64;98940.50;4859383;29;20045;-71
2023/10/05 04:45:20;;;;;;;6.35;3.15;;;;;;;9.89;91.60;98924.75;4859383;29;20060;-71
2023/10/05 04:47:48;;;;;;;6.03;3.35;;;;;;;9.96;91.67;98931.25;4859274;29;20408;-70
2023/10/05 04:50:15;;;;;;;5.03;3.08;;;;;;;10.02;91.34;98946.78;4860418;29;20048;-75
2023/10/05 04:52:45;;;;;;;9.20;2.88;;;;;;;10.06;91.33;98925.06;4843992;29;20075;-70
2023/10/05 04:55:30;;;;;;;7.38;2.67;;;;;;;10.13;91.10;98928.97;4844279;29;20064;-70
2023/10/05 04:58:14;;;;;;;6.72;3.35;;;;;;;10.11;90.70;98962.00;4860770;29;20059;-71
2023/10/05 05:01:28;;;;;;;7.07;3.67;;;;;;;10.22;90.63;98899.91;4843914;29;20052;-70
2023/10/05 05:06:20;;;;;;;6.95;3.60;;;;;;;10.38;89.63;98937.66;4785052;29;20069;-73
2023/10/05 05:08:45;;;;;;;6.72;3.58;;;;;;;10.44;89.34;98948.63;4785196;29;20590;-70
2023/10/05 05:11:20;;;;;;;9.45;3.50;;;;;;;10.49;88.52;98950.94;4786671;29;20065;-71
2023/10/05 05:13:47;;;;;;;7.18;3.60;;;;;;;10.50;87.69;98941.94;4788354;29;20057;-70
2023/10/05 05:16:15;;;;;;;7.40;3.72;;;;;;;10.52;87.93;98956.84;4788698;29;20058;-70
2023/10/05 05:18:42;;;;;;;7.60;3.85;;;;;;;10.57;86.96;98955.63;4788641;29;20054;-71
2023/10/05 05:21:07;;;;;;;9.13;4.13;;;;;;;10.55;86.86;98956.59;4788705;29;20430;-72
2023/10/05 05:23:36;;;;;;;6.13;3.58;;;;;;;10.57;87.32;98953.81;4788647;29;20519;-71
2023/10/05 05:26:03;;;;;;;8.55;4.05;;;;;;;10.65;86.88;98947.84;4788179;29;20093;-69
2023/10/05 05:28:29;;;;;;;6.72;3.97;;;;;;;10.81;87.21;98961.59;4788318;29;20414;-71
2023/10/05 05:30:55;;;;;;;8.30;3.70;;;;;;;11.10;87.00;98957.31;4788482;29;20062;-70
2023/10/05 05:33:20;;;;;;;7.80;3.80;;;;;;;11.44;86.02;98949.13;4788536;29;20042;-71
2023/10/05 05:35:46;;;;;;;6.40;3.65;;;;;;;11.73;83.27;98950.13;4788553;29;20057;-71
2023/10/05 05:38:11;;;;;;;9.35;4.03;;;;;;;12.09;82.70;98945.19;4788818;29;20042;-70
2023/10/05 05:40:37;;;;;;;5.80;3.35;;;;;;;12.53;80.16;98966.13;4788668;29;20054;-71
2023/10/05 05:43:11;;;;;;;8.75;3.70;;;;;;;12.98;77.75;98941.53;4820865;29;20056;-72
2023/10/05 05:45:43;;;;;;;7.80;3.08;;;;;;;13.67;76.18;98958.19;4847332;29;20052;-70
2023/10/05 05:48:13;;;;;;;4.72;3.22;;;;;;;13.96;72.46;98930.44;4848048;29;20064;-71
2023/10/05 05:50:43;;;;;;;6.03;3.28;;;;;;;13.92;70.81;98937.94;4864344;29;20048;-72
2023/10/05 05:53:11;;;;;;;6.10;3.47;;;;;;;13.74;70.34;98945.06;4847274;29;20056;-71
2023/10/05 05:55:43;;;;;;;7.03;3.75;;;;;;;13.52;71.29;98948.09;4864116;29;20053;-70
2023/10/05 05:58:14;;;;;;;11.02;4.35;;;;;;;13.28;71.84;98946.75;4862747;29;20619;-71
2023/10/05 06:00:40;;;;;;;7.93;4.43;;;;;;;13.15;72.74;98951.53;4863960;29;20393;-72
2023/10/05 06:03:10;;;;;;;7.15;3.75;;;;;;;13.04;73.71;98948.97;4846696;29;20059;-72
2023/10/05 06:05:36;;;;;;;7.68;3.60;;;;;;;12.93;73.78;98939.28;4862534;29;20048;-72
2023/10/05 06:08:03;;;;;;;7.43;3.13;;;;;;;12.87;74.70;98952.34;4863708;29;20048;-71
2023/10/05 06:10:28;;;;;;;4.75;3.45;;;;;;;12.78;74.35;98958.56;4861846;29;20536;-71
2023/10/05 06:12:54;;;;;;;7.53;3.20;;;;;;;12.75;75.22;98972.22;4862299;29;20068;-72
2023/10/05 06:15:20;;;;;;;6.43;3.25;;;;;;;12.60;75.29;98967.28;4862139;29;20122;-72
2023/10/05 06:17:46;;;;;;;9.02;4.03;;;;;;;12.72;76.21;98974.19;4846437;29;20060;-71
2023/10/05 06:20:15;;;;;;;9.05;4.45;;;;;;;13.12;77.11;98972.34;4863394;29;20183;-71
2023/10/05 06:22:43;;;;;;;7.78;4.18;;;;;;;13.61;75.29;98942.72;4863317;29;20048;-71
2023/10/05 06:25:09;;;;;;;10.50;4.07;;;;;;;14.69;73.63;98950.06;4861968;29;20424;-71
2023/10/05 06:27:37;;;;;;;7.68;3.85;;;;;;;15.88;68.59;98946.81;4863101;29;20044;-70
2023/10/05 06:30:05;;;;;;;10.38;3.85;;;;;;;16.75;62.18;98943.78;4846545;29;20052;-71
2023/10/05 06:32:31;;;;;;;7.63;4.22;;;;;;;17.12;60.35;98937.94;4862981;29;20055;-71
2023/10/05 06:34:56;;;;;;;6.75;3.45;;;;;;;16.93;59.32;98941.78;4863174;29;20044;-70
2023/10/05 06:37:22;;;;;;;9.68;3.97;;;;;;;16.56;59.21;98944.06;4862941;29;20504;-72
2023/10/05 06:39:47;;;;;;;6.57;3.45;;;;;;;16.28;60.34;98952.38;4863292;29;20056;-70
2023/10/05 06:42:12;;;;;;;7.88;3.70;;;;;;;15.97;60.57;98959.28;4846167;29;20459;-71
2023/10/05 06:44:39;;;;;;;9.73;4.00;;;;;;;15.70;61.67;98951.41;4861918;29;20397;-73
2023/10/05 06:47:04;;;;;;;6.93;3.78;;;;;;;15.54;62.01;98944.94;4863353;29;20044;-71
2023/10/05 06:49:30;;;;;;;7.80;3.65;;;;;;;15.49;62.75;98949.91;4845816;29;20064;-71
2023/10/05 06:51:55;;;;;;;9.50;4.22;;;;;;;15.54;63.61;98947.63;4863276;29;20051;-72
2023/10/05 06:54:20;;;;;;;5.95;3.72;;;;;;;15.57;62.77;98952.69;4862883;29;20428;-71
2023/10/05 06:56:49;;;;;;;6.30;3.35;;;;;;;15.64;62.44;98957.44;4862870;29;20048;-71
2023/10/05 06:59:15;;;;;;;8.88;3.80;;;;;;;15.65;62.81;98970.72;4861641;29;20048;-71
2023/10/05 07:01:40;;;;;;;12.85;4.45;;;;;;;15.58;62.65;98937.41;4862843;29;20516;-73
2023/10/05 07:04:08;;;;;;;5.53;3.55;;;;;;;15.32;62.32;98953.50;4846108;29;20060;-72
2023/10/05 07:06:33;;;;;;;10.00;3.83;;;;;;;15.09;63.01;98969.25;4849683;29;20533;-71
2023/10/05 07:08:59;;;;;;;6.85;4.25;;;;;;;15.03;63.98;98947.53;4864799;29;20056;-72
2023/10/05 07:11:25;;;;;;;9.52;4.32;;;;;;;15.00;63.83;98959.44;4862789;29;20056;-72
2023/10/05 07:13:51;;;;;;;7.10;3.90;;;;;;;15.10;63.92;98970.09;4862724;29;20476;-70
2023/10/05 07:16:17;;;;;;;6.88;3.53;;;;;;;15.21;63.52;98930.41;4860972;29;20056;-70
2023/10/05 07:18:43;;;;;;;9.88;4.28;;;;;;;15.08;63.09;98961.34;4861331;29;20048;-72
2023/10/05 07:21:08;;;;;;;8.23;4.32;;;;;;;14.87;62.94;98965.19;4845700;29;20416;-72
2023/10/05 07:23:38;;;;;;;7.80;3.63;;;;;;;14.78;63.83;98971.47;4860849;29;20535;-71
2023/10/05 07:26:06;;;;;;;9.70;3.88;;;;;;;14.59;64.21;98966.22;4861075;29;20048;-72
2023/10/05 07:28:35;;;;;;;7.05;3.80;;;;;;;14.52;64.72;98959.78;4844806;29;20052;-70
2023/10/05 07:31:02;;;;;;;10.52;4.57;;;;;;;14.39;64.80;98964.63;4862066;29;20044;-73
2023/10/05 07:33:29;;;;;;;9.88;4.00;;;;;;;14.38;65.38;98968.31;4860944;29;20036;-71
2023/10/05 07:35:56;;;;;;;5.57;3.50;;;;;;;14.44;65.49;98957.03;4862063;29;20055;-73
2023/10/05 07:38:26;;;;;;;9.35;4.10;;;;;;;14.52;65.63;98966.00;4845072;29;20048;-71
2023/10/05 07:40:53;;;;;;;5.97;3.95;;;;;;;14.57;65.44;98965.53;4862039;29;20056;-70
2023/10/05 07:43:18;;;;;;;7.28;3.25;;;;;;;14.56;65.13;98963.03;4860733;29;20052;-71
2023/10/05 07:45:44;;;;;;;10.40;3.88;;;;;;;14.52;65.32;98966.00;4860998;29;20416;-72
2023/10/05 07:48:09;;;;;;;7.95;3.70;;;;;;;14.53;65.40;98964.16;4861719;29;20040;-71
2023/10/05 07:50:37;;;;;;;7.03;3.92;;;;;;;14.57;65.15;98968.22;4861834;29;20048;-73
2023/10/05 07:53:02;;;;;;;10.02;4.57;;;;;;;14.64;64.82;98961.28;4860412;29;20045;-73
2023/10/05 07:55:27;;;;;;;7.97;3.88;;;;;;;14.77;64.54;98969.78;4861485;29;20048;-72
2023/10/05 07:57:52;;;;;;;7.13;3.72;;;;;;;14.89;64.36;98995.41;4861239;29;20428;-72
2023/10/05 08:00:20;;;;;;;12.32;4.53;;;;;;;14.80;63.19;98980.19;4861227;29;20044;-72
2023/10/05 08:02:46;;;;;;;7.30;3.95;;;;;;;14.83;63.54;99071.13;4861280;29;20040;-71
2023/10/05 08:05:12;;;;;;;6.07;3.63;;;;;;;14.87;63.67;98965.19;4861321;29;20526;-72
2023/10/05 08:07:37;;;;;;;9.50;5.07;;;;;;;14.93;63.64;98963.72;4844410;29;20048;-72
2023/10/05 08:10:04;;;;;;;10.20;4.50;;;;;;;14.98;63.34;98956.06;4861297;29;20420;-72
2023/10/05 08:12:29;;;;;;;9.75;4.35;;;;;;;15.09;62.97;98966.56;4860268;29;20045;-71
2023/10/05 08:14:55;;;;;;;7.43;3.95;;;;;;;15.31;63.15;98983.19;4861428;29;20055;-70
2023/10/05 08:17:21;;;;;;;7.18;4.10;;;;;;;15.46;62.32;98960.97;4844233;29;20412;-70
2023/10/05 08:19:46;;;;;;;10.10;4.68;;;;;;;15.46;60.77;98960.97;4861337;29;20500;-71
2023/10/05 08:22:11;;;;;;;8.40;4.18;;;;;;;15.45;61.15;98958.47;4844423;29;20068;-70
2023/10/05 08:24:37;;;;;;;8.57;4.90;;;;;;;15.37;61.04;98982.53;4861191;29;20412;-73
2023/10/05 08:27:02;;;;;;;8.20;3.53;;;;;;;15.23;61.20;98952.59;4861573;29;20045;-73
2023/10/05 08:29:28;;;;;;;7.88;4.15;;;;;;;15.31;61.07;98962.53;4861294;29;20067;-73
2023/10/05 08:31:53;;;;;;;9.07;4.30;;;;;;;15.62;61.18;98960.28;4861115;29;20048;-72
2023/10/05 08:34:22;;;;;;;7.32;3.85;;;;;;;16.09;60.21;98958.00;4861129;29;20045;-74
2023/10/05 08:36:49;;;;;;;9.55;4.18;;;;;;;16.59;59.10;98965.28;4861078;29;20536;-71
2023/10/05 08:39:25;;;;;;;8.48;3.88;;;;;;;17.12;57.50;98946.03;4859936;29;20052;-71
2023/10/05 08:44:48;;;;;;;7.70;3.72;;;;;;;18.41;51.82;98961.06;4839601;29;20061;-72
2023/10/05 08:47:13;;;;;;;8.13;3.83;;;;;;;18.55;52.04;98954.09;4824735;29;20049;-69
2023/10/05 08:49:43;;;;;;;8.30;3.58;;;;;;;18.30;51.07;98974.09;4840190;29;20057;-69
2023/10/05 08:52:20;;;;;;;7.72;3.75;;;;;;;18.04;51.48;98955.50;4840251;29;20056;-70
2023/10/05 08:54:46;;;;;;;9.98;4.55;;;;;;;17.66;52.65;98949.03;4824941;29;20394;-70
2023/10/05 08:57:12;;;;;;;9.55;3.92;;;;;;;17.64;53.24;98954.59;4840108;29;20824;-72
2023/10/05 08:59:39;;;;;;;8.05;4.82;;;;;;;17.69;52.69;98970.25;4824867;29;20053;-70
2023/10/05 09:02:08;;;;;;;12.52;4.70;;;;;;;17.70;52.46;98912.63;4821556;29;20061;-71
2023/10/05 09:04:43;;;;;;;7.07;4.05;;;;;;;17.47;52.03;98950.22;4821634;29;20080;-72
2023/10/05 09:07:25;;;;;;;7.95;4.15;;;;;;;17.44;52.74;98945.16;4821507;29;20085;-74
2023/10/05 09:09:56;;;;;;;7.47;3.92;;;;;;;18.02;52.71;98942.19;4821962;29;20061;-72
2023/10/05 09:12:37;;;;;;;8.15;3.97;;;;;;;18.93;48.47;98944.28;4821904;29;20061;-72
2023/10/05 09:17:58;;;;;;;10.52;4.28;;;;;;;21.06;45.17;98939.00;4835866;29;20085;-70
2023/10/05 09:20:31;;;;;;;8.00;3.58;;;;;;;21.64;43.00;98948.72;4840253;29;20049;-72
2023/10/05 09:23:05;;;;;;;12.50;4.77;;;;;;;21.21;43.38;98924.41;4841724;29;20087;-70
2023/10/05 09:25:38;;;;;;;15.07;4.28;;;;;;;20.56;44.14;98955.13;4841768;29;20057;-72
2023/10/05 09:28:15;;;;;;;8.00;4.07;;;;;;;19.75;45.54;98942.53;4840856;29;20420;-72
2023/10/05 09:30:59;;;;;;;8.93;4.00;;;;;;;19.05;46.98;98948.25;4841998;29;20041;-72
2023/10/05 09:33:27;;;;;;;9.55;4.15;;;;;;;18.38;47.97;98955.19;4856664;29;20413;-73
2023/10/05 09:36:06;;;;;;;7.43;4.47;;;;;;;18.16;48.57;98951.41;4842103;29;20060;-74
2023/10/05 09:38:40;;;;;;;12.20;4.13;;;;;;;18.02;49.36;98949.44;4841710;29;20064;-72
2023/10/05 09:41:07;;;;;;;8.70;4.25;;;;;;;17.95;49.27;98954.66;4842245;29;20412;-71
2023/10/05 09:43:38;;;;;;;10.35;4.40;;;;;;;18.12;49.04;98966.25;4841847;29;20053;-71
2023/10/05 09:46:09;;;;;;;9.20;4.25;;;;;;;18.34;48.75;98954.72;4840447;29;20056;-71
2023/10/05 09:48:37;;;;;;;8.13;3.80;;;;;;;18.39;47.70;98951.50;4842221;29;20595;-71
2023/10/05 09:51:03;;;;;;;9.80;3.90;;;;;;;18.93;47.70;98971.28;4842414;29;20139;-71
2023/10/05 09:53:33;;;;;;;7.65;3.95;;;;;;;19.76;46.25;98946.09;4840600;29;20045;-71
2023/10/05 09:55:59;;;;;;;6.93;3.50;;;;;;;20.17;44.83;98938.38;4840087;29;20056;-72
2023/10/05 09:58:25;;;;;;;6.80;3.55;;;;;;;20.34;44.14;98949.81;4862826;29;20068;-72
2023/10/05 10:00:55;;;;;;;5.90;3.55;;;;;;;20.04;43.21;98933.63;4846987;29;20053;-71
2023/10/05 10:03:21;;;;;;;7.47;3.25;;;;;;;19.68;44.29;98944.31;4863644;29;20053;-72
2023/10/05 10:05:55;;;;;;;6.47;3.90;;;;;;;19.37;45.15;98935.47;4863423;29;20099;-72
2023/10/05 10:08:24;;;;;;;8.38;4.00;;;;;;;18.88;46.12;98946.66;4846407;29;20048;-72
2023/10/05 10:11:03;;;;;;;7.28;3.92;;;;;;;18.62;46.45;98976.72;4861801;29;20052;-72
2023/10/05 10:13:39;;;;;;;8.43;4.22;;;;;;;18.39;47.34;98949.63;4863037;29;20119;-72
2023/10/05 10:16:21;;;;;;;8.68;4.28;;;;;;;18.67;47.31;98949.16;4858874;29;20044;-72
2023/10/05 10:19:19;;;;;;;7.43;3.78;;;;;;;18.62;46.83;98947.00;4861846;29;20516;-74
2023/10/05 10:21:53;;;;;;;8.18;4.22;;;;;;;18.29;47.46;98948.97;4835648;29;20048;-73
2023/10/05 10:24:19;;;;;;;7.82;3.80;;;;;;;17.99;48.16;98952.47;4846574;29;20053;-75
2023/10/05 10:27:07;;;;;;;7.07;3.33;;;;;;;17.62;49.23;98950.34;4863847;29;20055;-75
2023/10/05 10:29:55;;;;;;;6.45;3.63;;;;;;;17.20;50.93;98951.41;4851314;29;20053;-74
2023/10/05 10:32:31;;;;;;;7.13;3.80;;;;;;;16.87;51.80;98957.78;4863250;29;20044;-74
2023/10/05 10:35:10;;;;;;;8.73;3.42;;;;;;;16.52;52.81;98966.91;4846256;29;20052;-72
2023/10/05 10:37:44;;;;;;;4.82;2.95;;;;;;;16.34;54.02;98967.88;4861331;29;20060;-73
2023/10/05 10:42:50;;;;;;;7.97;3.60;;;;;;;16.00;55.25;98975.13;4845956;29;20044;-75
2023/10/05 10:45:23;;;;;;;6.22;3.50;;;;;;;15.78;56.09;98976.50;4860038;29;20051;-72
2023/10/05 10:47:48;;;;;;;7.40;3.67;;;;;;;15.69;56.74;98988.19;4860891;29;20061;-74
2023/10/05 10:50:16;;;;;;;8.75;3.33;;;;;;;15.52;58.01;98975.63;4862914;29;20052;-71
2023/10/05 10:52:43;;;;;;;5.18;2.97;;;;;;;15.50;59.03;98978.47;4862733;29;20075;-72
2023/10/05 10:55:15;;;;;;;6.50;3.63;;;;;;;15.75;58.73;98976.81;4860352;29;20043;-72
2023/10/05 10:57:48;;;;;;;8.35;4.13;;;;;;;16.16;58.01;98964.41;4861039;29;20059;-70
2023/10/05 11:02:58;;;;;;;7.93;3.55;;;;;;;16.78;56.06;98970.38;4861595;29;20051;-71
2023/10/05 11:05:40;;;;;;;5.75;4.07;;;;;;;16.95;55.68;98982.84;4862684;29;20412;-71
2023/10/05 11:08:12;;;;;;;7.57;4.05;;;;;;;16.93;55.21;98968.69;4861836;29;20048;-71
2023/10/05 11:10:42;;;;;;;8.50;3.53;;;;;;;16.84;55.08;98941.94;4860575;29;20535;-70
2023/10/05 11:13:14;;;;;;;8.52;4.43;;;;;;;16.78;55.33;98956.91;4848787;29;20048;-77
2023/10/05 11:15:59;;;;;;;10.48;4.22;;;;;;;16.87;55.14;98963.16;4862090;29;20047;-71
2023/10/05 11:18:39;;;;;;;9.45;4.38;;;;;;;16.59;55.52;98970.66;4845659;29;20052;-70
2023/10/05 11:21:14;;;;;;;8.90;3.88;;;;;;;16.17;56.95;98971.50;4845662;29;20059;-72
2023/10/05 11:23:47;;;;;;;9.40;4.18;;;;;;;15.90;58.67;98969.88;4862287;29;20047;-72
2023/10/05 11:26:18;;;;;;;9.15;4.63;;;;;;;15.81;59.77;98948.44;4862230;29;20535;-72
2023/10/05 11:28:51;;;;;;;8.38;4.18;;;;;;;15.91;59.68;98954.56;4840469;29;20048;-72
2023/10/05 11:31:26;;;;;;;9.65;4.00;;;;;;;15.87;59.78;98974.72;4861549;29;20364;-73
2023/10/05 11:33:53;;;;;;;8.07;4.28;;;;;;;16.02;59.20;98957.00;4861774;29;20048;-74
2023/10/05 11:36:27;;;;;;;6.75;3.90;;;;;;;16.02;59.15;98954.31;4842836;29;20138;-73
2023/10/05 11:38:59;;;;;;;10.70;4.18;;;;;;;16.08;58.92;98967.09;4861981;29;20052;-73
2023/10/05 11:41:28;;;;;;;7.25;2.80;;;;;;;15.90;58.99;98960.97;4862021;29;20055;-75
2023/10/05 11:43:58;;;;;;;7.30;3.28;;;;;;;15.78;58.40;98959.53;4862381;29;20048;-77
2023/10/05 11:46:29;;;;;;;6.07;2.97;;;;;;;15.60;58.41;98947.00;4859211;29;20044;-75
2023/10/05 11:48:55;;;;;;;6.15;2.92;;;;;;;15.41;58.53;98965.97;4861255;29;20416;-75
2023/10/05 11:51:42;;;;;;;6.72;2.75;;;;;;;15.21;58.93;98941.16;4861679;29;20053;-77
2023/10/05 11:54:09;;;;;;;8.52;3.85;;;;;;;15.01;59.67;98957.59;4862602;29;20036;-75
2023/10/05 11:56:34;;;;;;;8.00;3.50;;;;;;;14.81;59.98;98955.06;4860718;29;20530;-74
2023/10/05 11:59:00;;;;;;;3.55;2.88;;;;;;;14.72;60.17;98976.59;4845181;29;20048;-77
2023/10/05 12:01:32;;;;;;;6.47;3.80;;;;;;;14.60;60.54;98973.28;4859542;29;20044;-77
2023/10/05 12:03:58;;;;;;;6.40;3.28;;;;;;;14.47;60.40;98952.19;4862945;29;20067;-79
2023/10/05 12:06:25;;;;;;;6.70;3.05;;;;;;;14.39;60.55;98964.63;4847163;29;20057;-79
2023/10/05 12:08:53;;;;;;;7.10;3.80;;;;;;;14.33;60.80;98959.88;4841038;29;20060;-78
2023/10/05 12:11:23;;;;;;;7.90;3.25;;;;;;;14.34;60.91;98962.41;4861505;29;20052;-73
2023/10/05 12:13:49;;;;;;;7.47;3.78;;;;;;;14.15;62.50;98958.00;4858803;29;20503;-75
2023/10/05 12:16:15;;;;;;;7.63;4.20;;;;;;;14.26;63.07;98962.31;4837387;29;20056;-73
2023/10/05 12:18:43;;;;;;;9.25;4.45;;;;;;;14.30;63.23;98958.34;4862360;29;20510;-74